sensor_id;sensor_type;location;lat;lon;timestamp;temperature;humidity
16172;DHT22;8192;53.596;10.166;2023-03-26T00:00:23;6.70;99.90
16172;DHT22;8192;53.596;10.166;2023-03-26T00:02:50;6.70;99.90
16172;DHT22;8192;53.596;10.166;2023-03-26T00:05:19;6.70;99.90
16172;DHT22;8192;53.596;10.166;2023-03-26T00:07:46;6.70;99.90
16172;DHT22;8192;53.596;10.166;2023-03-26T00:10:13;6.70;99.90
16172;DHT22;8192;53.596;10.166;2023-03-26T00:12:40;6.70;99.90
16172;DHT22;8192;53.596;10.166;2023-03-26T00:15:08;6.80;99.90
16172;DHT22;8192;53.596;10.166;2023-03-26T00:17:35;6.80;99.90
16172;DHT22;8192;53.596;10.166;2023-03-26T00:20:02;6.80;99.90
16172;DHT22;8192;53.596;10.166;2023-03-26T00:22:31;6.80;99.90
16172;DHT22;8192;53.596;10.166;2023-03-26T00:24:58;6.70;99.90
16172;DHT22;8192;53.596;10.166;2023-03-26T00:27:26;6.70;99.90
16172;DHT22;8192;53.596;10.166;2023-03-26T00:29:53;6.70;99.90
16172;DHT22;8192;53.596;10.166;2023-03-26T00:32:21;6.70;99.90
16172;DHT22;8192;53.596;10.166;2023-03-26T00:34:52;6.80;99.90
16172;DHT22;8192;53.596;10.166;2023-03-26T00:37:20;6.70;99.90
16172;DHT22;8192;53.596;10.166;2023-03-26T00:39:52;6.70;99.90
16172;DHT22;8192;53.596;10.166;2023-03-26T00:42:23;6.70;99.90
16172;DHT22;8192;53.596;10.166;2023-03-26T00:44:51;6.70;99.90
16172;DHT22;8192;53.596;10.166;2023-03-26T00:47:19;6.70;99.90
16172;DHT22;8192;53.596;10.166;2023-03-26T00:49:47;6.60;99.90
16172;DHT22;8192;53.596;10.166;2023-03-26T00:52:15;6.60;99.90
16172;DHT22;8192;53.596;10.166;2023-03-26T00:54:43;6.60;99.90
16172;DHT22;8192;53.596;10.166;2023-03-26T00:57:12;6.60;99.90
16172;DHT22;8192;53.596;10.166;2023-03-26T00:59:39;6.60;99.90
16172;DHT22;8192;53.596;10.166;2023-03-26T01:02:09;6.60;99.90
16172;DHT22;8192;53.596;10.166;2023-03-26T01:04:37;6.60;99.90
16172;DHT22;8192;53.596;10.166;2023-03-26T01:07:08;6.60;99.90
16172;DHT22;8192;53.596;10.166;2023-03-26T01:09:39;6.60;99.90
16172;DHT22;8192;53.596;10.166;2023-03-26T01:12:14;6.60;99.90
16172;DHT22;8192;53.596;10.166;2023-03-26T01:14:41;6.50;99.90
16172;DHT22;8192;53.596;10.166;2023-03-26T01:17:09;6.50;99.90
16172;DHT22;8192;53.596;10.166;2023-03-26T01:19:41;6.50;99.90
16172;DHT22;8192;53.596;10.166;2023-03-26T01:22:12;6.50;99.90
16172;DHT22;8192;53.596;10.166;2023-03-26T01:24:42;6.50;99.90
16172;DHT22;8192;53.596;10.166;2023-03-26T01:27:16;6.50;99.90
16172;DHT22;8192;53.596;10.166;2023-03-26T01:29:52;6.50;99.90
16172;DHT22;8192;53.596;10.166;2023-03-26T01:32:41;6.50;99.90
16172;DHT22;8192;53.596;10.166;2023-03-26T01:35:28;6.50;99.90
16172;DHT22;8192;53.596;10.166;2023-03-26T01:38:07;6.50;99.90
16172;DHT22;8192;53.596;10.166;2023-03-26T01:40:41;6.40;99.90
16172;DHT22;8192;53.596;10.166;2023-03-26T01:45:41;6.20;99.90
16172;DHT22;8192;53.596;10.166;2023-03-26T01:48:11;6.10;99.90
16172;DHT22;8192;53.596;10.166;2023-03-26T01:50:38;6.10;99.90
16172;DHT22;8192;53.596;10.166;2023-03-26T01:53:06;6.00;99.90
16172;DHT22;8192;53.596;10.166;2023-03-26T01:55:45;6.00;99.90
16172;DHT22;8192;53.596;10.166;2023-03-26T01:58:25;6.00;99.90
16172;DHT22;8192;53.596;10.166;2023-03-26T02:01:00;5.90;99.90
16172;DHT22;8192;53.596;10.166;2023-03-26T02:03:30;5.90;99.90
16172;DHT22;8192;53.596;10.166;2023-03-26T02:06:04;5.90;99.90
16172;DHT22;8192;53.596;10.166;2023-03-26T02:08:37;5.90;99.90
16172;DHT22;8192;53.596;10.166;2023-03-26T02:11:09;5.90;99.90
16172;DHT22;8192;53.596;10.166;2023-03-26T02:13:38;5.80;99.90
16172;DHT22;8192;53.596;10.166;2023-03-26T02:16:08;5.80;99.90
16172;DHT22;8192;53.596;10.166;2023-03-26T02:18:36;5.70;99.90
16172;DHT22;8192;53.596;10.166;2023-03-26T02:21:06;5.80;99.90
16172;DHT22;8192;53.596;10.166;2023-03-26T02:23:37;5.70;99.90
16172;DHT22;8192;53.596;10.166;2023-03-26T02:26:07;5.60;99.90
16172;DHT22;8192;53.596;10.166;2023-03-26T02:28:35;5.70;99.90
16172;DHT22;8192;53.596;10.166;2023-03-26T02:31:03;5.70;99.90
16172;DHT22;8192;53.596;10.166;2023-03-26T02:33:30;5.70;99.90
16172;DHT22;8192;53.596;10.166;2023-03-26T02:35:58;5.70;99.90
16172;DHT22;8192;53.596;10.166;2023-03-26T02:38:26;5.70;99.90
16172;DHT22;8192;53.596;10.166;2023-03-26T02:40:53;5.80;99.90
16172;DHT22;8192;53.596;10.166;2023-03-26T02:43:22;5.70;99.90
16172;DHT22;8192;53.596;10.166;2023-03-26T02:45:49;5.70;99.90
16172;DHT22;8192;53.596;10.166;2023-03-26T02:48:16;5.80;99.90
16172;DHT22;8192;53.596;10.166;2023-03-26T02:50:43;5.80;99.90
16172;DHT22;8192;53.596;10.166;2023-03-26T02:53:10;5.80;99.90
16172;DHT22;8192;53.596;10.166;2023-03-26T02:55:38;5.80;99.90
16172;DHT22;8192;53.596;10.166;2023-03-26T02:58:05;5.80;99.90
16172;DHT22;8192;53.596;10.166;2023-03-26T03:00:34;5.80;99.90
16172;DHT22;8192;53.596;10.166;2023-03-26T03:03:01;5.80;99.90
16172;DHT22;8192;53.596;10.166;2023-03-26T03:05:31;5.80;99.90
16172;DHT22;8192;53.596;10.166;2023-03-26T03:07:59;5.80;99.90
16172;DHT22;8192;53.596;10.166;2023-03-26T03:10:27;5.70;99.90
16172;DHT22;8192;53.596;10.166;2023-03-26T03:12:57;5.70;99.90
16172;DHT22;8192;53.596;10.166;2023-03-26T03:15:25;5.60;99.90
16172;DHT22;8192;53.596;10.166;2023-03-26T03:17:53;5.50;99.90
16172;DHT22;8192;53.596;10.166;2023-03-26T03:20:20;5.50;99.90
16172;DHT22;8192;53.596;10.166;2023-03-26T03:22:47;5.40;99.90
16172;DHT22;8192;53.596;10.166;2023-03-26T03:25:14;5.40;99.90
16172;DHT22;8192;53.596;10.166;2023-03-26T03:27:42;5.40;99.90
16172;DHT22;8192;53.596;10.166;2023-03-26T03:30:11;5.40;99.90
16172;DHT22;8192;53.596;10.166;2023-03-26T03:32:38;5.30;99.90
16172;DHT22;8192;53.596;10.166;2023-03-26T03:35:08;5.30;99.90
16172;DHT22;8192;53.596;10.166;2023-03-26T03:37:35;5.30;99.90
16172;DHT22;8192;53.596;10.166;2023-03-26T03:40:02;5.30;99.90
16172;DHT22;8192;53.596;10.166;2023-03-26T03:42:32;5.20;99.90
16172;DHT22;8192;53.596;10.166;2023-03-26T03:45:00;5.20;99.90
16172;DHT22;8192;53.596;10.166;2023-03-26T03:47:27;5.20;99.90
16172;DHT22;8192;53.596;10.166;2023-03-26T03:49:54;5.20;99.90
16172;DHT22;8192;53.596;10.166;2023-03-26T03:52:26;5.20;99.90
16172;DHT22;8192;53.596;10.166;2023-03-26T03:54:53;5.20;99.90
16172;DHT22;8192;53.596;10.166;2023-03-26T03:57:21;5.20;99.90
16172;DHT22;8192;53.596;10.166;2023-03-26T03:59:48;5.20;99.90
16172;DHT22;8192;53.596;10.166;2023-03-26T04:02:15;5.20;99.90
16172;DHT22;8192;53.596;10.166;2023-03-26T04:04:50;5.20;99.90
16172;DHT22;8192;53.596;10.166;2023-03-26T04:07:18;5.20;99.90
16172;DHT22;8192;53.596;10.166;2023-03-26T04:09:46;5.20;99.90
16172;DHT22;8192;53.596;10.166;2023-03-26T04:12:13;5.10;99.90
16172;DHT22;8192;53.596;10.166;2023-03-26T04:14:41;5.20;99.90
16172;DHT22;8192;53.596;10.166;2023-03-26T04:17:08;5.20;99.90
16172;DHT22;8192;53.596;10.166;2023-03-26T04:19:38;5.20;99.90
16172;DHT22;8192;53.596;10.166;2023-03-26T04:22:05;5.20;99.90
16172;DHT22;8192;53.596;10.166;2023-03-26T04:24:32;5.20;99.90
16172;DHT22;8192;53.596;10.166;2023-03-26T04:27:04;5.20;99.90
16172;DHT22;8192;53.596;10.166;2023-03-26T04:29:40;5.20;99.90
16172;DHT22;8192;53.596;10.166;2023-03-26T04:32:11;5.10;99.90
16172;DHT22;8192;53.596;10.166;2023-03-26T04:34:44;5.10;99.90
16172;DHT22;8192;53.596;10.166;2023-03-26T04:37:21;5.10;99.90
16172;DHT22;8192;53.596;10.166;2023-03-26T04:39:49;5.00;99.90
16172;DHT22;8192;53.596;10.166;2023-03-26T04:42:17;5.00;99.90
16172;DHT22;8192;53.596;10.166;2023-03-26T04:44:45;5.00;99.90
16172;DHT22;8192;53.596;10.166;2023-03-26T04:47:15;4.90;99.90
16172;DHT22;8192;53.596;10.166;2023-03-26T04:49:43;5.00;99.90
16172;DHT22;8192;53.596;10.166;2023-03-26T04:52:11;4.90;99.90
16172;DHT22;8192;53.596;10.166;2023-03-26T04:54:38;4.90;99.90
16172;DHT22;8192;53.596;10.166;2023-03-26T04:57:10;5.00;99.90
16172;DHT22;8192;53.596;10.166;2023-03-26T04:59:40;5.00;99.90
16172;DHT22;8192;53.596;10.166;2023-03-26T05:02:09;5.00;99.90
16172;DHT22;8192;53.596;10.166;2023-03-26T05:04:37;5.00;99.90
16172;DHT22;8192;53.596;10.166;2023-03-26T05:07:05;5.00;99.90
16172;DHT22;8192;53.596;10.166;2023-03-26T05:09:34;4.90;99.90
16172;DHT22;8192;53.596;10.166;2023-03-26T05:12:01;4.80;99.90
16172;DHT22;8192;53.596;10.166;2023-03-26T05:14:28;4.80;99.90
16172;DHT22;8192;53.596;10.166;2023-03-26T05:16:56;4.70;99.90
16172;DHT22;8192;53.596;10.166;2023-03-26T05:19:23;4.60;99.90
16172;DHT22;8192;53.596;10.166;2023-03-26T05:21:50;4.50;99.90
16172;DHT22;8192;53.596;10.166;2023-03-26T05:24:17;4.50;99.90
16172;DHT22;8192;53.596;10.166;2023-03-26T05:26:44;4.40;99.90
16172;DHT22;8192;53.596;10.166;2023-03-26T05:29:12;4.50;99.90
16172;DHT22;8192;53.596;10.166;2023-03-26T05:31:40;4.50;99.90
16172;DHT22;8192;53.596;10.166;2023-03-26T05:34:10;4.60;99.90
16172;DHT22;8192;53.596;10.166;2023-03-26T05:36:37;4.70;99.90
16172;DHT22;8192;53.596;10.166;2023-03-26T05:39:05;4.70;99.90
16172;DHT22;8192;53.596;10.166;2023-03-26T05:41:33;4.70;99.90
16172;DHT22;8192;53.596;10.166;2023-03-26T05:44:00;4.80;99.90
16172;DHT22;8192;53.596;10.166;2023-03-26T05:46:27;4.80;99.90
16172;DHT22;8192;53.596;10.166;2023-03-26T05:48:54;4.80;99.90
16172;DHT22;8192;53.596;10.166;2023-03-26T05:51:22;4.80;99.90
16172;DHT22;8192;53.596;10.166;2023-03-26T05:53:50;4.80;99.90
16172;DHT22;8192;53.596;10.166;2023-03-26T05:56:17;4.80;99.90
16172;DHT22;8192;53.596;10.166;2023-03-26T05:58:44;4.70;99.90
16172;DHT22;8192;53.596;10.166;2023-03-26T06:01:13;4.70;99.90
16172;DHT22;8192;53.596;10.166;2023-03-26T06:03:44;4.70;99.90
16172;DHT22;8192;53.596;10.166;2023-03-26T06:06:13;4.70;99.90
16172;DHT22;8192;53.596;10.166;2023-03-26T06:08:42;4.80;99.90
16172;DHT22;8192;53.596;10.166;2023-03-26T06:11:22;4.80;99.90
16172;DHT22;8192;53.596;10.166;2023-03-26T06:13:50;4.80;99.90
16172;DHT22;8192;53.596;10.166;2023-03-26T06:16:17;4.80;99.90
16172;DHT22;8192;53.596;10.166;2023-03-26T06:18:44;4.90;99.90
16172;DHT22;8192;53.596;10.166;2023-03-26T06:21:11;4.90;99.90
16172;DHT22;8192;53.596;10.166;2023-03-26T06:23:38;5.00;99.90
16172;DHT22;8192;53.596;10.166;2023-03-26T06:26:08;5.00;99.90
16172;DHT22;8192;53.596;10.166;2023-03-26T06:28:35;5.10;99.90
16172;DHT22;8192;53.596;10.166;2023-03-26T06:31:02;5.10;99.90
16172;DHT22;8192;53.596;10.166;2023-03-26T06:33:30;5.20;99.90
16172;DHT22;8192;53.596;10.166;2023-03-26T06:35:57;5.20;99.90
16172;DHT22;8192;53.596;10.166;2023-03-26T06:38:24;5.30;99.90
16172;DHT22;8192;53.596;10.166;2023-03-26T06:40:51;5.30;99.90
16172;DHT22;8192;53.596;10.166;2023-03-26T06:43:20;5.30;99.90
16172;DHT22;8192;53.596;10.166;2023-03-26T06:45:50;5.40;99.90
16172;DHT22;8192;53.596;10.166;2023-03-26T06:48:17;5.50;99.90
16172;DHT22;8192;53.596;10.166;2023-03-26T06:50:45;5.50;99.90
16172;DHT22;8192;53.596;10.166;2023-03-26T06:53:12;5.60;99.90
16172;DHT22;8192;53.596;10.166;2023-03-26T06:55:39;5.50;99.90
16172;DHT22;8192;53.596;10.166;2023-03-26T06:58:10;5.60;99.90
16172;DHT22;8192;53.596;10.166;2023-03-26T07:04:01;5.70;99.90
16172;DHT22;8192;53.596;10.166;2023-03-26T07:06:28;5.70;99.90
16172;DHT22;8192;53.596;10.166;2023-03-26T07:08:55;5.80;99.90
16172;DHT22;8192;53.596;10.166;2023-03-26T07:11:24;5.80;99.90
16172;DHT22;8192;53.596;10.166;2023-03-26T07:13:54;5.80;99.90
16172;DHT22;8192;53.596;10.166;2023-03-26T07:16:24;5.80;99.90
16172;DHT22;8192;53.596;10.166;2023-03-26T07:22:19;6.00;99.90
16172;DHT22;8192;53.596;10.166;2023-03-26T07:24:50;5.90;99.90
16172;DHT22;8192;53.596;10.166;2023-03-26T07:27:34;5.90;99.90
16172;DHT22;8192;53.596;10.166;2023-03-26T07:30:07;5.90;99.90
16172;DHT22;8192;53.596;10.166;2023-03-26T07:32:40;5.80;99.90
16172;DHT22;8192;53.596;10.166;2023-03-26T07:35:17;5.80;99.90
16172;DHT22;8192;53.596;10.166;2023-03-26T07:37:55;5.80;99.90
16172;DHT22;8192;53.596;10.166;2023-03-26T07:40:44;5.90;99.90
16172;DHT22;8192;53.596;10.166;2023-03-26T07:43:25;5.80;99.90
16172;DHT22;8192;53.596;10.166;2023-03-26T07:45:57;5.80;99.90
16172;DHT22;8192;53.596;10.166;2023-03-26T07:48:36;5.80;99.90
16172;DHT22;8192;53.596;10.166;2023-03-26T07:51:06;5.80;99.90
16172;DHT22;8192;53.596;10.166;2023-03-26T07:53:36;5.80;99.90
16172;DHT22;8192;53.596;10.166;2023-03-26T07:56:09;5.80;99.90
16172;DHT22;8192;53.596;10.166;2023-03-26T07:58:52;5.90;99.90
16172;DHT22;8192;53.596;10.166;2023-03-26T08:01:31;5.80;99.90
16172;DHT22;8192;53.596;10.166;2023-03-26T08:07:34;5.90;99.90
16172;DHT22;8192;53.596;10.166;2023-03-26T08:13:26;6.20;99.90
16172;DHT22;8192;53.596;10.166;2023-03-26T08:16:05;6.20;99.90
16172;DHT22;8192;53.596;10.166;2023-03-26T08:21:57;6.10;99.90
16172;DHT22;8192;53.596;10.166;2023-03-26T08:24:35;6.60;99.90
16172;DHT22;8192;53.596;10.166;2023-03-26T08:30:29;6.90;99.90
16172;DHT22;8192;53.596;10.166;2023-03-26T08:32:59;6.80;99.90
16172;DHT22;8192;53.596;10.166;2023-03-26T08:38:20;6.70;99.90
16172;DHT22;8192;53.596;10.166;2023-03-26T09:00:41;6.90;99.90
16172;DHT22;8192;53.596;10.166;2023-03-26T09:03:42;6.70;99.90
16172;DHT22;8192;53.596;10.166;2023-03-26T09:06:26;6.90;99.90
16172;DHT22;8192;53.596;10.166;2023-03-26T09:09:36;7.10;99.90
16172;DHT22;8192;53.596;10.166;2023-03-26T09:27:36;6.70;99.90
16172;DHT22;8192;53.596;10.166;2023-03-26T09:36:22;7.30;99.90
16172;DHT22;8192;53.596;10.166;2023-03-26T09:39:06;7.40;99.90
16172;DHT22;8192;53.596;10.166;2023-03-26T09:41:42;7.70;99.90
16172;DHT22;8192;53.596;10.166;2023-03-26T09:47:25;7.90;99.90
16172;DHT22;8192;53.596;10.166;2023-03-26T09:50:07;7.90;99.90
16172;DHT22;8192;53.596;10.166;2023-03-26T09:52:53;8.00;99.90
16172;DHT22;8192;53.596;10.166;2023-03-26T09:55:44;8.10;99.90
16172;DHT22;8192;53.596;10.166;2023-03-26T10:01:35;7.50;99.90
16172;DHT22;8192;53.596;10.166;2023-03-26T10:07:06;6.90;99.90
16172;DHT22;8192;53.596;10.166;2023-03-26T10:09:47;7.00;99.90
16172;DHT22;8192;53.596;10.166;2023-03-26T10:12:24;7.40;99.90
16172;DHT22;8192;53.596;10.166;2023-03-26T10:15:04;7.60;99.90
16172;DHT22;8192;53.596;10.166;2023-03-26T10:17:49;7.80;99.90
16172;DHT22;8192;53.596;10.166;2023-03-26T10:20:32;7.90;99.90
16172;DHT22;8192;53.596;10.166;2023-03-26T10:26:36;7.90;99.90
16172;DHT22;8192;53.596;10.166;2023-03-26T10:29:29;8.00;99.90
16172;DHT22;8192;53.596;10.166;2023-03-26T10:32:09;8.70;99.90
16172;DHT22;8192;53.596;10.166;2023-03-26T10:34:51;8.90;99.90
16172;DHT22;8192;53.596;10.166;2023-03-26T10:37:32;9.10;99.90
16172;DHT22;8192;53.596;10.166;2023-03-26T10:40:19;8.60;99.90
16172;DHT22;8192;53.596;10.166;2023-03-26T10:55:28;8.10;99.90
16172;DHT22;8192;53.596;10.166;2023-03-26T10:57:59;8.80;99.90
16172;DHT22;8192;53.596;10.166;2023-03-26T11:00:54;9.10;99.90
16172;DHT22;8192;53.596;10.166;2023-03-26T11:03:45;9.30;99.90
16172;DHT22;8192;53.596;10.166;2023-03-26T11:06:29;9.00;99.90
16172;DHT22;8192;53.596;10.166;2023-03-26T11:09:06;8.90;99.90
16172;DHT22;8192;53.596;10.166;2023-03-26T11:11:41;8.90;99.90
16172;DHT22;8192;53.596;10.166;2023-03-26T11:14:14;8.90;99.90
16172;DHT22;8192;53.596;10.166;2023-03-26T11:20:11;8.30;99.90
16172;DHT22;8192;53.596;10.166;2023-03-26T11:22:49;8.10;99.90
16172;DHT22;8192;53.596;10.166;2023-03-26T11:25:59;7.90;99.90
16172;DHT22;8192;53.596;10.166;2023-03-26T11:31:35;7.60;99.90
16172;DHT22;8192;53.596;10.166;2023-03-26T11:34:09;7.70;99.90
16172;DHT22;8192;53.596;10.166;2023-03-26T11:36:42;7.80;99.90
16172;DHT22;8192;53.596;10.166;2023-03-26T11:39:14;8.00;99.90
16172;DHT22;8192;53.596;10.166;2023-03-26T11:41:43;8.30;99.90
16172;DHT22;8192;53.596;10.166;2023-03-26T11:44:18;8.60;99.90
16172;DHT22;8192;53.596;10.166;2023-03-26T11:46:48;8.90;99.90
16172;DHT22;8192;53.596;10.166;2023-03-26T11:52:39;9.10;99.90
16172;DHT22;8192;53.596;10.166;2023-03-26T11:55:09;8.70;99.90
16172;DHT22;8192;53.596;10.166;2023-03-26T12:01:02;8.60;99.90
16172;DHT22;8192;53.596;10.166;2023-03-26T12:03:30;8.60;99.90
16172;DHT22;8192;53.596;10.166;2023-03-26T12:05:58;8.60;99.90
16172;DHT22;8192;53.596;10.166;2023-03-26T12:08:32;8.60;99.90
16172;DHT22;8192;53.596;10.166;2023-03-26T12:11:06;8.60;99.90
16172;DHT22;8192;53.596;10.166;2023-03-26T12:13:38;8.50;99.90
16172;DHT22;8192;53.596;10.166;2023-03-26T12:16:12;8.50;99.90
16172;DHT22;8192;53.596;10.166;2023-03-26T12:18:40;8.70;99.90
16172;DHT22;8192;53.596;10.166;2023-03-26T12:21:10;8.70;99.90
16172;DHT22;8192;53.596;10.166;2023-03-26T12:23:54;8.70;99.90
16172;DHT22;8192;53.596;10.166;2023-03-26T12:26:30;8.80;99.90
16172;DHT22;8192;53.596;10.166;2023-03-26T12:29:04;8.70;99.90
16172;DHT22;8192;53.596;10.166;2023-03-26T12:31:41;8.90;99.90
16172;DHT22;8192;53.596;10.166;2023-03-26T12:37:34;9.20;99.90
16172;DHT22;8192;53.596;10.166;2023-03-26T12:40:24;9.30;99.90
16172;DHT22;8192;53.596;10.166;2023-03-26T12:43:22;9.10;99.90
16172;DHT22;8192;53.596;10.166;2023-03-26T12:45:54;8.90;99.90
16172;DHT22;8192;53.596;10.166;2023-03-26T12:48:23;9.00;99.90
16172;DHT22;8192;53.596;10.166;2023-03-26T12:51:03;8.90;99.90
16172;DHT22;8192;53.596;10.166;2023-03-26T12:57:17;8.90;99.90
16172;DHT22;8192;53.596;10.166;2023-03-26T13:00:13;9.10;99.90
16172;DHT22;8192;53.596;10.166;2023-03-26T13:03:21;9.20;99.90
16172;DHT22;8192;53.596;10.166;2023-03-26T13:11:33;9.60;99.90
16172;DHT22;8192;53.596;10.166;2023-03-26T13:17:22;9.50;99.90
16172;DHT22;8192;53.596;10.166;2023-03-26T13:19:59;9.40;99.90
16172;DHT22;8192;53.596;10.166;2023-03-26T13:22:40;9.30;99.90
16172;DHT22;8192;53.596;10.166;2023-03-26T13:25:17;9.30;99.90
16172;DHT22;8192;53.596;10.166;2023-03-26T13:27:54;9.50;99.90
16172;DHT22;8192;53.596;10.166;2023-03-26T13:30:35;9.50;99.90
16172;DHT22;8192;53.596;10.166;2023-03-26T13:33:32;9.70;99.90
16172;DHT22;8192;53.596;10.166;2023-03-26T13:36:07;9.70;99.90
16172;DHT22;8192;53.596;10.166;2023-03-26T13:42:07;9.60;99.90
16172;DHT22;8192;53.596;10.166;2023-03-26T13:44:46;9.40;99.30
16172;DHT22;8192;53.596;10.166;2023-03-26T13:47:32;9.20;97.30
16172;DHT22;8192;53.596;10.166;2023-03-26T13:53:25;9.30;95.90
16172;DHT22;8192;53.596;10.166;2023-03-26T13:55:57;9.30;96.20
16172;DHT22;8192;53.596;10.166;2023-03-26T13:58:30;9.40;95.20
16172;DHT22;8192;53.596;10.166;2023-03-26T14:01:02;9.40;94.80
16172;DHT22;8192;53.596;10.166;2023-03-26T14:03:38;9.40;93.90
16172;DHT22;8192;53.596;10.166;2023-03-26T14:06:23;9.60;94.10
16172;DHT22;8192;53.596;10.166;2023-03-26T14:08:57;9.50;93.10
16172;DHT22;8192;53.596;10.166;2023-03-26T14:11:37;9.30;91.80
16172;DHT22;8192;53.596;10.166;2023-03-26T14:14:08;9.30;90.70
16172;DHT22;8192;53.596;10.166;2023-03-26T14:16:38;9.20;89.20
16172;DHT22;8192;53.596;10.166;2023-03-26T14:19:21;9.30;90.60
16172;DHT22;8192;53.596;10.166;2023-03-26T14:22:01;9.70;90.40
16172;DHT22;8192;53.596;10.166;2023-03-26T14:24:58;10.10;91.00
16172;DHT22;8192;53.596;10.166;2023-03-26T14:27:41;10.30;92.20
16172;DHT22;8192;53.596;10.166;2023-03-26T14:30:44;10.20;90.40
16172;DHT22;8192;53.596;10.166;2023-03-26T14:33:31;10.40;88.30
16172;DHT22;8192;53.596;10.166;2023-03-26T14:36:08;10.60;87.10
16172;DHT22;8192;53.596;10.166;2023-03-26T14:38:56;10.50;85.20
16172;DHT22;8192;53.596;10.166;2023-03-26T14:41:45;10.70;86.30
16172;DHT22;8192;53.596;10.166;2023-03-26T14:44:28;11.00;87.90
16172;DHT22;8192;53.596;10.166;2023-03-26T14:47:11;11.30;85.80
16172;DHT22;8192;53.596;10.166;2023-03-26T14:53:04;10.30;75.60
16172;DHT22;8192;53.596;10.166;2023-03-26T14:55:54;9.90;73.80
16172;DHT22;8192;53.596;10.166;2023-03-26T14:58:48;9.90;74.00
16172;DHT22;8192;53.596;10.166;2023-03-26T15:01:24;9.90;73.50
16172;DHT22;8192;53.596;10.166;2023-03-26T15:07:07;9.90;70.10
16172;DHT22;8192;53.596;10.166;2023-03-26T15:13:09;10.00;69.10
16172;DHT22;8192;53.596;10.166;2023-03-26T15:22:24;10.10;71.50
16172;DHT22;8192;53.596;10.166;2023-03-26T15:31:16;10.10;63.20
16172;DHT22;8192;53.596;10.166;2023-03-26T15:37:24;9.40;64.60
16172;DHT22;8192;53.596;10.166;2023-03-26T15:40:29;9.30;63.60
16172;DHT22;8192;53.596;10.166;2023-03-26T15:43:08;9.40;67.00
16172;DHT22;8192;53.596;10.166;2023-03-26T15:45:37;9.50;61.60
16172;DHT22;8192;53.596;10.166;2023-03-26T15:48:29;9.40;62.00
16172;DHT22;8192;53.596;10.166;2023-03-26T15:51:09;9.60;60.70
16172;DHT22;8192;53.596;10.166;2023-03-26T15:53:48;9.70;59.70
16172;DHT22;8192;53.596;10.166;2023-03-26T15:56:29;9.90;61.60
16172;DHT22;8192;53.596;10.166;2023-03-26T15:59:05;10.20;58.40
16172;DHT22;8192;53.596;10.166;2023-03-26T16:05:06;10.10;56.40
16172;DHT22;8192;53.596;10.166;2023-03-26T16:07:51;10.20;56.80
16172;DHT22;8192;53.596;10.166;2023-03-26T16:10:34;10.00;54.70
16172;DHT22;8192;53.596;10.166;2023-03-26T16:13:32;9.90;55.80
16172;DHT22;8192;53.596;10.166;2023-03-26T16:19:30;9.80;56.50
16172;DHT22;8192;53.596;10.166;2023-03-26T16:22:00;9.50;56.60
16172;DHT22;8192;53.596;10.166;2023-03-26T16:24:32;9.30;56.60
16172;DHT22;8192;53.596;10.166;2023-03-26T16:30:11;9.10;57.40
16172;DHT22;8192;53.596;10.166;2023-03-26T16:32:43;8.80;58.20
16172;DHT22;8192;53.596;10.166;2023-03-26T16:38:53;8.40;57.90
16172;DHT22;8192;53.596;10.166;2023-03-26T16:41:29;8.30;59.60
16172;DHT22;8192;53.596;10.166;2023-03-26T16:44:06;8.30;59.50
16172;DHT22;8192;53.596;10.166;2023-03-26T16:46:47;8.30;58.40
16172;DHT22;8192;53.596;10.166;2023-03-26T16:49:25;8.30;58.90
16172;DHT22;8192;53.596;10.166;2023-03-26T16:55:36;8.20;59.10
16172;DHT22;8192;53.596;10.166;2023-03-26T16:58:14;8.10;58.70
16172;DHT22;8192;53.596;10.166;2023-03-26T17:00:46;8.10;58.30
16172;DHT22;8192;53.596;10.166;2023-03-26T17:03:32;7.90;59.50
16172;DHT22;8192;53.596;10.166;2023-03-26T17:06:12;7.90;58.90
16172;DHT22;8192;53.596;10.166;2023-03-26T17:08:55;7.80;58.60
16172;DHT22;8192;53.596;10.166;2023-03-26T17:11:34;7.80;58.80
16172;DHT22;8192;53.596;10.166;2023-03-26T17:14:14;7.70;58.70
16172;DHT22;8192;53.596;10.166;2023-03-26T17:16:47;7.70;58.80
16172;DHT22;8192;53.596;10.166;2023-03-26T17:19:26;7.60;59.10
16172;DHT22;8192;53.596;10.166;2023-03-26T17:22:00;7.60;58.80
16172;DHT22;8192;53.596;10.166;2023-03-26T17:24:38;7.60;59.50
16172;DHT22;8192;53.596;10.166;2023-03-26T17:27:21;7.60;60.30
16172;DHT22;8192;53.596;10.166;2023-03-26T17:30:00;7.60;61.30
16172;DHT22;8192;53.596;10.166;2023-03-26T17:32:54;7.50;62.20
16172;DHT22;8192;53.596;10.166;2023-03-26T17:35:44;7.60;61.50
16172;DHT22;8192;53.596;10.166;2023-03-26T17:42:15;7.60;61.80
16172;DHT22;8192;53.596;10.166;2023-03-26T17:44:45;7.60;63.90
16172;DHT22;8192;53.596;10.166;2023-03-26T17:47:28;7.60;63.30
16172;DHT22;8192;53.596;10.166;2023-03-26T17:53:22;7.40;64.70
16172;DHT22;8192;53.596;10.166;2023-03-26T17:55:53;7.30;65.40
16172;DHT22;8192;53.596;10.166;2023-03-26T17:58:27;7.20;66.40
16172;DHT22;8192;53.596;10.166;2023-03-26T18:04:23;7.10;68.20
16172;DHT22;8192;53.596;10.166;2023-03-26T18:07:09;7.00;69.40
16172;DHT22;8192;53.596;10.166;2023-03-26T18:13:24;7.00;72.40
16172;DHT22;8192;53.596;10.166;2023-03-26T18:16:08;6.90;72.90
16172;DHT22;8192;53.596;10.166;2023-03-26T18:22:03;6.70;75.60
16172;DHT22;8192;53.596;10.166;2023-03-26T18:24:36;6.60;77.00
16172;DHT22;8192;53.596;10.166;2023-03-26T18:27:05;6.50;77.80
16172;DHT22;8192;53.596;10.166;2023-03-26T18:33:01;6.50;79.10
16172;DHT22;8192;53.596;10.166;2023-03-26T18:35:39;6.50;79.40
16172;DHT22;8192;53.596;10.166;2023-03-26T18:38:11;6.50;80.40
16172;DHT22;8192;53.596;10.166;2023-03-26T18:40:40;6.40;81.00
16172;DHT22;8192;53.596;10.166;2023-03-26T18:43:13;6.50;79.60
16172;DHT22;8192;53.596;10.166;2023-03-26T18:45:42;6.50;79.60
16172;DHT22;8192;53.596;10.166;2023-03-26T18:48:15;6.40;79.80
16172;DHT22;8192;53.596;10.166;2023-03-26T18:50:44;6.40;78.60
16172;DHT22;8192;53.596;10.166;2023-03-26T18:53:15;6.50;79.00
16172;DHT22;8192;53.596;10.166;2023-03-26T18:55:43;6.50;77.30
16172;DHT22;8192;53.596;10.166;2023-03-26T18:58:21;6.50;74.80
16172;DHT22;8192;53.596;10.166;2023-03-26T19:00:50;6.50;74.10
16172;DHT22;8192;53.596;10.166;2023-03-26T19:03:38;6.50;73.50
16172;DHT22;8192;53.596;10.166;2023-03-26T19:06:11;6.50;73.00
16172;DHT22;8192;53.596;10.166;2023-03-26T19:08:41;6.50;71.50
16172;DHT22;8192;53.596;10.166;2023-03-26T19:11:10;6.50;70.60
16172;DHT22;8192;53.596;10.166;2023-03-26T19:13:38;6.50;71.00
16172;DHT22;8192;53.596;10.166;2023-03-26T19:16:11;6.50;69.60
16172;DHT22;8192;53.596;10.166;2023-03-26T19:18:42;6.40;69.90
16172;DHT22;8192;53.596;10.166;2023-03-26T19:21:10;6.40;68.70
16172;DHT22;8192;53.596;10.166;2023-03-26T19:23:38;6.40;69.20
16172;DHT22;8192;53.596;10.166;2023-03-26T19:29:31;6.30;68.50
16172;DHT22;8192;53.596;10.166;2023-03-26T19:32:03;6.30;67.70
16172;DHT22;8192;53.596;10.166;2023-03-26T19:34:34;6.20;67.20
16172;DHT22;8192;53.596;10.166;2023-03-26T19:37:17;6.10;66.50
16172;DHT22;8192;53.596;10.166;2023-03-26T19:39:47;6.10;67.30
16172;DHT22;8192;53.596;10.166;2023-03-26T19:42:17;6.00;65.40